Terminal Aerodrome Forecast
Issued by NWS Binghamton, NY

Home | Current Version | Previous Version | Text Only | Print | Product List | Glossary On
Versions: 1 2 3 4 5 6 7 8 9 10 11 12 13 14 15 16 17 18 19
527
FTUS41 KBGM 180539
TAFAVP
TAF
KAVP 180539Z 1806/1906 VRB04KT P6SM BKN015 BKN040
      TEMPO 1807/1809 5SM -TSRA SCT015 BKN040CB
     FM180900 19006KT 5SM BR BKN015 OVC030
      TEMPO 1811/1814 -SHRA
     FM181700 21008KT P6SM BKN025 OVC060 PROB30 1817/1821 5SM -TSRA
      SCT025 BKN040CB
     FM182100 22006KT P6SM SCT040 BKN100=

USA.gov is the U.S. government's official web portal to all federal, state and local government web resources and services.